Florida Logo

Pensacola, FL Single Family Real Estate Listings

1051 Total Real Estate Listings * Click on table heading to sort
Date Posted Property Type Style Address Price Living Area Lot Size Price/Sq Ft.
2017-10-22 Single Family Traditional 913 Gadsden St Pensacola, FL 32501 $30,000 817 sq. ft. $37
2017-10-22 Single Family Country; French Prov; Traditional 39 Galvez Ct Pensacola, FL 32561 $1,499,000 3,700 sq. ft. 6,970 sq. ft. $405
2017-10-21 Single Family Ranch 2540 Franciscan Dr Pensacola, FL 32526 $179,900 1,649 sq. ft. 16,988 sq. ft. $109
2017-10-21 Single Family Ranch 2555 Franciscan Dr Pensacola, FL 32526 $219,900 1,924 sq. ft. 16,692 sq. ft. $114
2017-10-21 Single Family Contemporary 3007 Cedarwood Village Ln Pensacola, FL 32514 $110,000 1,282 sq. ft. 3,311 sq. ft. $86
2017-10-21 Single Family Ranch 3045 Bent Oak Dr Pensacola, FL 32526 $89,900 1,265 sq. ft. 9,148 sq. ft. $71
2017-10-21 Single Family Ranch 32 Mohawk Trl Pensacola, FL 32506 $125,000 2,564 sq. ft. 20,473 sq. ft. $49
2017-10-21 Single Family Contemporary 5566 Esperanto Dr A-3 Pensacola, FL 32526 $86,000 1,210 sq. ft. 1,651 sq. ft. $71
2017-10-21 Single Family Traditional 3413 Natherly Dr Pensacola, FL 32526 $214,999 2,159 sq. ft. 11,326 sq. ft. $100
2017-10-20 Single Family Ranch 7213 Jackson St Pensacola, FL 32506 $134,900 2,268 sq. ft. 71,438 sq. ft. $59
2017-10-20 Single Family Contemporary 4783 Tradewinds Dr Pensacola, FL 32514 $59,900 677 sq. ft. 2,087 sq. ft. $88
2017-10-20 Single Family Traditional 4932 Randee Cir Pensacola, FL 32526 $159,900 1,774 sq. ft. 25,265 sq. ft. $90
2017-10-20 Single Family Ranch 5590 Homewood Rd Pensacola, FL 32504 $185,000 1,729 sq. ft. 11,326 sq. ft. $107
2017-10-20 Single Family Ranch 8111 Lifair Dr Pensacola, FL 32506 $65,000 1,528 sq. ft. 9,583 sq. ft. $43
2017-10-20 Single Family Traditional 1140 Halyard Pl Pensacola, FL 32507 $225,000 2,247 sq. ft. 11,326 sq. ft. $100
2017-10-20 Single Family Contemporary 1755 Texar Dr Pensacola, FL 32503 $315,000 2,790 sq. ft. 13,504 sq. ft. $113
2017-10-20 Single Family Contemporary 921 La Rua St Pensacola, FL 32501 $250,000 1,350 sq. ft. 7,405 sq. ft. $185
2017-10-20 Single Family Ranch 810 Bloodworth Ln Pensacola, FL 32504 $168,000 1,783 sq. ft. 38,768 sq. ft. $94
2017-10-20 Single Family Traditional 2221 Escambia Ave Pensacola, FL 32503 $430,000 2,012 sq. ft. 15,899 sq. ft. $214
2017-10-20 Single Family Traditional 1307 U St Pensacola, FL 32505 $26,000 1,211 sq. ft. 7,405 sq. ft. $21
2017-10-20 Single Family Traditional 10701 Willow Lake Dr Pensacola, FL 32506 $170,000 1,656 sq. ft. 11,705 sq. ft. $103
2017-10-20 Single Family Ranch 2076 Sequoia Cir Pensacola, FL 32526 $145,000 1,346 sq. ft. 6,098 sq. ft. $108
2017-10-19 Single Family Ranch 3795 Hidden Oak Dr Pensacola, FL 32504 $229,000 1,755 sq. ft. $130
2017-10-19 Single Family Ranch 303 Calhoun Ave Pensacola, FL 32507 $180,000 2,076 sq. ft. 15,682 sq. ft. $87
2017-10-19 Single Family Ranch 2870 Godwin Ln Pensacola, FL 32526 $149,900 1,364 sq. ft. 10,550 sq. ft. $110
2017-10-19 Single Family Contemporary 10225 Grackle Ct Pensacola, FL 32507 $284,900 2,063 sq. ft. 10,454 sq. ft. $138
2017-10-19 Single Family Craftsman 1700 Mallory St Pensacola, FL 32503 $414,900 2,399 sq. ft. 9,148 sq. ft. $173
2017-10-19 Single Family Traditional 914 Aurelias Pl Pensacola, FL 32514 $139,000 1,404 sq. ft. 6,878 sq. ft. $99
2017-10-19 Single Family Cottage 120 Country Club Rd Pensacola, FL 32507 $149,999 1,200 sq. ft. 6,534 sq. ft. $125
2017-10-19 Single Family Contemporary; Traditional 8352 Foxtail Loop Pensacola, FL 32526 $562,000 2,931 sq. ft. 14,954 sq. ft. $192
2017-10-19 Single Family Contemporary 8008 Charter Oaks Dr Pensacola, FL 32514 $170,000 1,659 sq. ft. 9,583 sq. ft. $102
2017-10-19 Single Family Ranch 11095 Lillian Hwy Pensacola, FL 32506 $224,900 1,928 sq. ft. 22,651 sq. ft. $117
2017-10-19 Single Family Craftsman 6062 Alder Ave Pensacola, FL 32526 $249,990 1,809 sq. ft. 11,761 sq. ft. $138
2017-10-19 Single Family Ranch 6108 Pam Ave Pensacola, FL 32526 $97,700 1,274 sq. ft. 15,076 sq. ft. $77
2017-10-19 Single Family Contemporary; Mediterranean 3183 Marcus Pointe Blvd Pensacola, FL 32505 $449,900 3,480 sq. ft. 19,602 sq. ft. $129
2017-10-19 Single Family Craftsman 9910 Boxelder Blvd Pensacola, FL 32526 $374,990 2,916 sq. ft. $129
2017-10-19 Single Family Traditional 4765 Tradewinds Dr Pensacola, FL 32514 $79,500 1,002 sq. ft. 4,356 sq. ft. $79
2017-10-19 Single Family Traditional 4188 Danamar Dr Pensacola, FL 32504 $115,000 1,401 sq. ft. 9,204 sq. ft. $82
2017-10-19 Single Family Traditional 1413 Maxwell St Pensacola, FL 32503 $275,000 1,386 sq. ft. 10,890 sq. ft. $198
2017-10-19 Single Family Contemporary 1650 Fairfield Dr Pensacola, FL 32507 $100,000 1,224 sq. ft. 10,454 sq. ft. $82
2017-10-18 Single Family Cottage 1303 Dexter Ave Pensacola, FL 32507 $81,300 896 sq. ft. 7,680 sq. ft. $91
2017-10-18 Single Family Traditional 3315 Bauer Rd Pensacola, FL 32506 $189,900 1,647 sq. ft. 11,574 sq. ft. $115
2017-10-18 Single Family Traditional 12 Elegans Ave Pensacola, FL 32507 $18,000 756 sq. ft. 6,534 sq. ft. $24
2017-10-18 Single Family Ranch 7308 Mobile Hwy Pensacola, FL 32526 $240,000 2,198 sq. ft. 145,055 sq. ft. $109
2017-10-18 Single Family Cottage 218 Willow St Pensacola, FL 32506 $46,500 944 sq. ft. 8,851 sq. ft. $49
2017-10-18 Single Family Contemporary 4039 Shorewood Dr Pensacola, FL 32507 $274,900 2,891 sq. ft. 12,632 sq. ft. $95
2017-10-18 Single Family Traditional 1410 Buttonwillow Trl Pensacola, FL 32506 $230,000 2,281 sq. ft. 18,731 sq. ft. $101
2017-10-18 Single Family Ranch 8236 Monticello Dr Pensacola, FL 32514 $219,000 1,690 sq. ft. 12,990 sq. ft. $130
2017-10-18 Single Family Craftsman 10101 Castleberry Blvd Pensacola, FL 32526 $239,900 2,120 sq. ft. 12,197 sq. ft. $113
2017-10-18 Single Family Traditional 4093 Johnson Ave Pensacola, FL 32514 $96,820 1,623 sq. ft. 9,583 sq. ft. $60
2017-10-17 Single Family Contemporary 909 Turnbuckle Trl Pensacola, FL 32507 $269,900 2,622 sq. ft. 10,454 sq. ft. $103
2017-10-17 Single Family Traditional 9735 Pickwood Dr Pensacola, FL 32514 $139,000 1,854 sq. ft. 18,731 sq. ft. $75
2017-10-17 Single Family Traditional 4705 Canter Row Pensacola, FL 32526 $225,000 2,140 sq. ft. 9,148 sq. ft. $105
2017-10-17 Single Family Traditional 7713 Arbor Pt Pensacola, FL 32526 $268,550 2,401 sq. ft. 9,792 sq. ft. $112
2017-10-17 Single Family Craftsman 3320 Kings Way Pensacola, FL 32504 $295,000 1,820 sq. ft. 8,276 sq. ft. $162
2017-10-17 Single Family Traditional 7377 Farmers Rd Pensacola, FL 32526 $202,875 1,665 sq. ft. 9,392 sq. ft. $122
2017-10-17 Single Family Traditional 7547 Milynn Way Pensacola, FL 32526 $217,625 1,797 sq. ft. 9,683 sq. ft. $121
2017-10-17 Single Family Ranch 4600 Petra Cir Pensacola, FL 32526 $74,900 1,000 sq. ft. 6,534 sq. ft. $75
2017-10-17 Single Family Cottage 8360 Gardenia Cir Pensacola, FL 32534 $71,500 1,376 sq. ft. 42,253 sq. ft. $52
2017-10-17 Single Family Spanish; Traditional 13987 Hanging Branch Way Pensacola, FL 32507 $437,100 2,656 sq. ft. 5,227 sq. ft. $165
2017-10-17 Single Family Spanish; Traditional 13991 Hanging Branch Way Pensacola, FL 32507 $440,480 2,656 sq. ft. 5,227 sq. ft. $166
2017-10-17 Single Family Traditional 2300 Michigan Ave Pensacola, FL 32506 $59,999 962 sq. ft. 118,048 sq. ft. $62
2017-10-16 Single Family Contemporary 3917 9th Ave Pensacola, FL 32503 $95,000 1,496 sq. ft. 9,043 sq. ft. $64
2017-10-16 Single Family Contemporary 3942 Jackson St Pensacola, FL 32505 $55,000 896 sq. ft. 6,325 sq. ft. $61
2017-10-16 Single Family Traditional 628 Bayshore Dr Pensacola, FL 32507 $499,000 2,900 sq. ft. 7,405 sq. ft. $172
2017-10-16 Single Family Traditional 315 Limerick Ln Pensacola, FL 32514 $149,900 1,401 sq. ft. $107
2017-10-16 Single Family Traditional 6025 Patch Ln Pensacola, FL 32526 $250,000 2,311 sq. ft. 12,197 sq. ft. $108
2017-10-16 Single Family Ranch 6470 Judkins Dr Pensacola, FL 32504 $130,000 1,430 sq. ft. 9,222 sq. ft. $91
2017-10-16 Single Family Traditional 179 Arbor Ave Pensacola, FL 32534 $129,999 1,080 sq. ft. $120
2017-10-16 Single Family Contemporary 7250 Annandale Dr Pensacola, FL 32526 $186,500 1,950 sq. ft. 11,761 sq. ft. $96
2017-10-16 Single Family Contemporary 1445 Dunhurst Dr Pensacola, FL 32534 $109,900 936 sq. ft. 3,049 sq. ft. $117
2017-10-16 Single Family Contemporary 1449 Dunhurst Dr Pensacola, FL 32534 $109,900 936 sq. ft. 3,049 sq. ft. $117
2017-10-16 Single Family Contemporary 10104 Bittern Dr Pensacola, FL 32507 $394,000 2,813 sq. ft. 11,761 sq. ft. $140
2017-10-16 Single Family Ranch 5537 Jackson St Pensacola, FL 32506 $50,000 729 sq. ft. 8,451 sq. ft. $69
2017-10-16 Single Family Traditional 4301 Grandpointe Pl Pensacola, FL 32514 $195,000 1,620 sq. ft. 12,197 sq. ft. $120
2017-10-16 Single Family Traditional 22 Keys Ct Pensacola, FL 32505 $75,000 1,486 sq. ft. 8,769 sq. ft. $50
2017-10-16 Single Family Ranch 5008 Antoine Pl Pensacola, FL 32505 $149,900 1,650 sq. ft. 5,663 sq. ft. $91
2017-10-16 Single Family Ranch 6310 Keating Rd Pensacola, FL 32504 $135,000 1,612 sq. ft. 15,677 sq. ft. $84
2017-10-15 Single Family Cottage 1001 60th Ave Pensacola, FL 32506 $73,000 1,024 sq. ft. 12,772 sq. ft. $71
2017-10-15 Single Family Contemporary 3804 11th Ave Pensacola, FL 32503 $384,900 2,400 sq. ft. 28,750 sq. ft. $160
2017-10-15 Single Family Traditional 354 Arabian Cir Pensacola, FL 32506 $129,900 1,589 sq. ft. 11,461 sq. ft. $82
2017-10-15 Single Family Cottage 2 Lotus Ct Pensacola, FL 32507 $110,000 1,192 sq. ft. 15,298 sq. ft. $92
2017-10-14 Single Family Cottage 10628 Shear St Pensacola, FL 32534 $127,900 1,158 sq. ft. 5,227 sq. ft. $110
2017-10-14 Single Family Cottage 1801 Intendencia Pensacola, FL 32502 $124,900 1,124 sq. ft. 7,492 sq. ft. $111
2017-10-14 Single Family Contemporary 8613 Rosemont Dr Pensacola, FL 32514 $642,900 4,539 sq. ft. 20,909 sq. ft. $142
2017-10-14 Single Family Contemporary 1137 Carla Dr Pensacola, FL 32533 $259,000 2,260 sq. ft. 11,761 sq. ft. $115
2017-10-13 Single Family Ranch 4721 Pebble Creek Dr Pensacola, FL 32526 $242,500 2,420 sq. ft. 13,098 sq. ft. $100
2017-10-13 Single Family Traditional 6512 Terrasanta Dr Pensacola, FL 32504 $339,900 2,892 sq. ft. 12,589 sq. ft. $118
2017-10-13 Single Family Ranch; Traditional 3135 Raines St Pensacola, FL 32514 $200,000 1,428 sq. ft. 10,890 sq. ft. $140
2017-10-13 Single Family Traditional 4405 Deauville Way Pensacola, FL 32505 $59,900 1,157 sq. ft. 7,967 sq. ft. $52
2017-10-13 Single Family Traditional 3182 Bent Oak Dr Pensacola, FL 32526 $85,000 2,015 sq. ft. 9,148 sq. ft. $42
2017-10-13 Single Family Ranch 7574 Sandy Creek Dr Pensacola, FL 32506 $119,000 1,281 sq. ft. 10,925 sq. ft. $93
2017-10-13 Single Family Ranch; Traditional 2760 Semoran Cir Pensacola, FL 32503 $309,000 2,239 sq. ft. 20,473 sq. ft. $138
2017-10-13 Single Family Traditional 2290 Waltham St Pensacola, FL 32505 $159,900 1,668 sq. ft. 7,501 sq. ft. $96
2017-10-13 Single Family Contemporary 2343 Arriviste Way Pensacola, FL 32504 $485,000 2,877 sq. ft. 15,333 sq. ft. $169
2017-10-13 Single Family Contemporary 10921 Trellis Ln Pensacola, FL 32526 $185,000 2,004 sq. ft. 11,326 sq. ft. $92
2017-10-13 Single Family Traditional 1076 Antigua Cir Pensacola, FL 32506 $112,000 1,075 sq. ft. $104
2017-10-13 Single Family Contemporary 4106 Brittany Ct Pensacola, FL 32504 $449,999 2,905 sq. ft. $155
2017-10-13 Single Family Ranch 6532 Bellview Pines Rd Pensacola, FL 32526 $99,500 1,170 sq. ft. 11,247 sq. ft. $85
2017-10-13 Single Family Cottage 7810 Homestead Ln Pensacola, FL 32526 $123,900 1,242 sq. ft. 4,356 sq. ft. $100
2017-10-12 Single Family Traditional 6541 Costa Mesa Pensacola, FL 32504 $347,000 3,275 sq. ft. 9,749 sq. ft. $106
2017-10-12 Single Family Traditional 23 Bartlett Cir Pensacola, FL 32505 $325,000 2,595 sq. ft. 13,504 sq. ft. $125
2017-10-12 Single Family Ranch; Traditional 3520 Summit Blvd Pensacola, FL 32504 $184,900 1,874 sq. ft. 13,068 sq. ft. $99
2017-10-12 Single Family Ranch 5677 Ventura Ln Pensacola, FL 32526 $79,900 1,688 sq. ft. 10,097 sq. ft. $47
2017-10-12 Single Family Traditional 5540 North Shore Rd Pensacola, FL 32507 $249,700 2,751 sq. ft. 14,166 sq. ft. $91
2017-10-12 Single Family Traditional 7072 Lake Joanne Dr Pensacola, FL 32506 $128,000 1,350 sq. ft. 5,227 sq. ft. $95
2017-10-12 Single Family Contemporary 1210 Bartram Ln Pensacola, FL 32507 $229,900 2,100 sq. ft. 9,056 sq. ft. $109
2017-10-12 Single Family Contemporary 11572 Belize Dr Pensacola, FL 32506 $329,900 3,158 sq. ft. 10,890 sq. ft. $104
2017-10-12 Single Family Cottage 234 Cottage View Dr Pensacola, FL 32507 $147,800 1,250 sq. ft. 3,402 sq. ft. $118
2017-10-12 Single Family Traditional 3033 Andover Rd Pensacola, FL 32504 $209,500 2,052 sq. ft. 18,291 sq. ft. $102
2017-10-12 Single Family Cottage 2 Glendower Ct Pensacola, FL 32507 $149,900 945 sq. ft. 9,409 sq. ft. $159
2017-10-11 Single Family Ranch 8612 Blue Jay Way Pensacola, FL 32534 $127,500 1,056 sq. ft. 7,841 sq. ft. $121
2017-10-11 Single Family Traditional 227 Edison Dr Pensacola, FL 32505 $75,000 1,554 sq. ft. 8,712 sq. ft. $48
2017-10-11 Single Family Traditional 8 Gulf St Pensacola, FL 32506 $37,500 1,188 sq. ft. 11,060 sq. ft. $32
2017-10-11 Single Family Contemporary 11018 Bridge Creek Dr Pensacola, FL 32506 $178,000 1,905 sq. ft. $93
2017-10-11 Single Family Traditional 5948 Providence Loop Pensacola, FL 32526 $189,000 1,947 sq. ft. 4,400 sq. ft. $97
2017-10-11 Single Family Ranch 211 Crow Rd Pensacola, FL 32506 $44,900 1,200 sq. ft. 21,344 sq. ft. $37
2017-10-11 Single Family Traditional 8274 Continental Ct Pensacola, FL 32506 $125,000 1,836 sq. ft. 20,408 sq. ft. $68
2017-10-11 Single Family Contemporary 2604 Tomlinson Rd Pensacola, FL 32526 $64,500 1,484 sq. ft. 13,504 sq. ft. $43
2017-10-11 Single Family Traditional 501 Wood Crest Way Pensacola, FL 32506 $79,999 1,098 sq. ft. 3,920 sq. ft. $73
2017-10-11 Single Family Traditional 34 Adkinson Dr Pensacola, FL 32507 $134,000 2,073 sq. ft. 9,148 sq. ft. $65
2017-10-11 Single Family Contemporary 2030 Utica Pl Pensacola, FL 32503 $300,000 3,052 sq. ft. 13,068 sq. ft. $98
2017-10-11 Single Family Traditional 6700 Fabiano St Pensacola, FL 32506 $84,900 1,400 sq. ft. 13,939 sq. ft. $61
2017-10-10 Single Family A-Frame; Cottage 1818 Government St Pensacola, FL 32502 $59,500 1,131 sq. ft. 4,800 sq. ft. $53
2017-10-10 Single Family Traditional 5466 Keel Dr Pensacola, FL 32507 $185,000 1,950 sq. ft. 10,123 sq. ft. $95
2017-10-10 Single Family Country 7225 Fairfield Dr Pensacola, FL 32506 $52,500 1,026 sq. ft. 215,186 sq. ft. $51
2017-10-10 Single Family Ranch 831 Lavon Dr Pensacola, FL 32506 $135,000 1,458 sq. ft. 6,774 sq. ft. $93
2017-10-10 Single Family Contemporary 179 Mirabelle Cir Pensacola, FL 32514 $149,900 1,402 sq. ft. 4,792 sq. ft. $107
2017-10-10 Single Family Ranch 9310 South Loop Rd Pensacola, FL 32507 $210,000 2,048 sq. ft. 47,916 sq. ft. $103
2017-10-10 Single Family Contemporary 3874 Weatherstone Cir Pensacola, FL 32507 $194,900 1,817 sq. ft. 4,356 sq. ft. $107
2017-10-10 Single Family Ranch 7790 Aaron Dr Pensacola, FL 32534 $89,978 1,485 sq. ft. 7,405 sq. ft. $61
2017-10-10 Single Family Contemporary 1215 Hatton St Pensacola, FL 32503 $355,000 1,898 sq. ft. 6,970 sq. ft. $187
2017-10-10 Single Family Mobile/Mnftd Home; Traditional 618 Old Corry Field Rd Pensacola, FL 32506 $65,000 1,960 sq. ft. 18,086 sq. ft. $33
2017-10-10 Single Family Ranch 3256 Creighton Rd Pensacola, FL 32504 $100,000 1,197 sq. ft. 9,583 sq. ft. $84
2017-10-09 Single Family Cottage; Ranch 7927 Heirloom Dr Pensacola, FL 32514 $150,000 1,600 sq. ft. 5,663 sq. ft. $94
2017-10-09 Single Family Ranch 3790 Nobles St Pensacola, FL 32514 $89,550 890 sq. ft. 20,038 sq. ft. $101
2017-10-09 Single Family Craftsman 134 Cottage View Dr Pensacola, FL 32507 $146,900 1,250 sq. ft. 3,402 sq. ft. $118
2017-10-09 Single Family Traditional 238 Cherokee Trl Pensacola, FL 32506 $98,900 1,516 sq. ft. 11,761 sq. ft. $65
2017-10-09 Single Family Ranch 2175 Inda Ave Pensacola, FL 32526 $144,900 1,534 sq. ft. 17,424 sq. ft. $94
2017-10-08 Single Family Traditional 7615 Shamrock Dr Pensacola, FL 32534 $52,900 960 sq. ft. 20,473 sq. ft. $55
2017-10-08 Single Family Contemporary 609 Dundee Dr Pensacola, FL 32507 $355,000 2,144 sq. ft. 18,731 sq. ft. $166
2017-10-07 Single Family Contemporary 4790 Baywind Dr Pensacola, FL 32514 $250,000 2,448 sq. ft. 16,117 sq. ft. $102
2017-10-07 Single Family Cottage 1281 Brownfield Rd Pensacola, FL 32526 $119,900 1,200 sq. ft. 7,118 sq. ft. $100
2017-10-07 Single Family Contemporary 1188 Naples Dr Pensacola, FL 32507 $410,000 2,451 sq. ft. 20,473 sq. ft. $167
2017-10-06 Single Family Ranch 5742 Ventura Ln Pensacola, FL 32526 $97,900 1,215 sq. ft. 9,448 sq. ft. $81
2017-10-06 Single Family Ranch 670 Riola Pl Pensacola, FL 32506 $275,000 1,821 sq. ft. 30,954 sq. ft. $151
2017-10-06 Single Family Ranch 7936 Dartmoor Cir Pensacola, FL 32514 $179,900 1,954 sq. ft. 10,890 sq. ft. $92
2017-10-06 Single Family Country 5821 Fairfield Dr Pensacola, FL 32506 $99,900 1,474 sq. ft. 104,108 sq. ft. $68
2017-10-06 Single Family Traditional 2445 Semoran Dr Pensacola, FL 32503 $335,000 2,441 sq. ft. 14,810 sq. ft. $137
2017-10-06 Single Family Traditional 7929 Whitmire Dr Pensacola, FL 32514 $110,000 1,348 sq. ft. 13,068 sq. ft. $82
2017-10-06 Single Family Victorian 316 Strong St Pensacola, FL 32501 $321,000 3,030 sq. ft. 10,498 sq. ft. $106
2017-10-06 Single Family Contemporary 6051 Valhalla Ave Pensacola, FL 32507 $399,900 2,449 sq. ft. 2,370 sq. ft. $163
2017-10-06 Single Family Contemporary 5012 Antoine Pl Pensacola, FL 32505 $135,000 1,580 sq. ft. 5,663 sq. ft. $85
2017-10-06 Single Family Traditional 8134 Treetop Ln Pensacola, FL 32514 $139,900 1,308 sq. ft. 4,386 sq. ft. $107
2017-10-06 Single Family Contemporary 6501 El Presideo Pensacola, FL 32504 $289,900 2,167 sq. ft. 11,761 sq. ft. $134
2017-10-06 Single Family Traditional 558 Northcreek Cir Pensacola, FL 32514 $350,000 3,000 sq. ft. 43,560 sq. ft. $117
2017-10-05 Single Family Traditional 2052 Stennis Dr Pensacola, FL 32506 $239,500 2,624 sq. ft. 10,454 sq. ft. $91
2017-10-05 Single Family Traditional 1984 Coral Reef Rd Pensacola, FL 32506 $169,900 1,584 sq. ft. 9,004 sq. ft. $107
2017-10-05 Single Family Contemporary 14538 Salt Meadow Dr Pensacola, FL 32507 $315,000 1,494 sq. ft. $211
2017-10-05 Single Family Craftsman 5906 Walter Franklin Rd Pensacola, FL 32526 $350,000 2,532 sq. ft. 13,504 sq. ft. $138
2017-10-05 Single Family Ranch 601 Whitney Dr Pensacola, FL 32503 $265,000 2,524 sq. ft. 12,584 sq. ft. $105
2017-10-05 Single Family Contemporary 521 D St Pensacola, FL 32501 $324,900 1,545 sq. ft. 1,307 sq. ft. $210
2017-10-05 Single Family Contemporary 1822 Whaley Ave Pensacola, FL 32503 $427,900 3,370 sq. ft. 10,890 sq. ft. $127
2017-10-05 Single Family Contemporary; Traditional 2176 Cliffbrook Ave Pensacola, FL 32526 $150,000 1,651 sq. ft. 10,454 sq. ft. $91
2017-10-05 Single Family Contemporary 12103 Longwood Dr Pensacola, FL 32507 $200,000 1,600 sq. ft. 18,909 sq. ft. $125
2017-10-04 Single Family Contemporary 2009 Cambridge Cir Pensacola, FL 32514 $142,550 1,360 sq. ft. 4,792 sq. ft. $105
2017-10-04 Single Family Ranch 615 Q St Pensacola, FL 32505 $59,999 1,025 sq. ft. 5,972 sq. ft. $59
2017-10-04 Single Family Traditional 14542 Salt Meadow Dr Pensacola, FL 32507 $313,200 1,494 sq. ft. $210
2017-10-04 Single Family Traditional 1900 Yonge St Pensacola, FL 32503 $359,900 2,415 sq. ft. 10,202 sq. ft. $149
2017-10-04 Single Family Contemporary 9609 Westgate Cir Pensacola, FL 32507 $234,900 1,800 sq. ft. 13,068 sq. ft. $130
2017-10-04 Single Family Cottage; Traditional 951 Aurelias Pl Pensacola, FL 32514 $134,998 1,323 sq. ft. 5,850 sq. ft. $102
2017-10-04 Single Family Ranch 7456 Klondike Rd Pensacola, FL 32526 $295,000 2,807 sq. ft. 65,340 sq. ft. $105
2017-10-04 Single Family Traditional 14101 Gorham Rd Pensacola, FL 32507 $369,000 1,752 sq. ft. 21,780 sq. ft. $211
2017-10-04 Single Family Ranch 425 Belle Chasse Way Pensacola, FL 32506 $90,800 1,949 sq. ft. 14,723 sq. ft. $47
2017-10-04 Single Family Contemporary 5027 Challenger Way Pensacola, FL 32507 $219,000 1,766 sq. ft. 10,890 sq. ft. $124
2017-10-04 Single Family Ranch 3610 12th Ave Pensacola, FL 32503 $163,700 1,488 sq. ft. 12,153 sq. ft. $110
2017-10-03 Single Family Ranch 3612 12th Ave Pensacola, FL 32503 $152,000 1,427 sq. ft. 12,153 sq. ft. $107
2017-10-03 Single Family Traditional 1135 Camaree Pl Pensacola, FL 32534 $174,000 1,823 sq. ft. 10,890 sq. ft. $95
2017-10-03 Single Family Craftsman; Traditional 6090 Basswood Blvd Pensacola, FL 32526 $270,990 2,490 sq. ft. 11,761 sq. ft. $109
2017-10-03 Single Family Traditional 6037 Electra Ln Pensacola, FL 32507 $224,900 2,233 sq. ft. 13,190 sq. ft. $101
2017-10-03 Single Family Ranch; Traditional 311 Robin Rd Pensacola, FL 32514 $169,900 1,773 sq. ft. 14,810 sq. ft. $96
2017-10-03 Single Family Ranch 2525 Truman Ave Pensacola, FL 32505 $71,900 2,508 sq. ft. 60,984 sq. ft. $29
2017-10-03 Single Family Creole 8905 Bellawood Cir Pensacola, FL 32514 $200,470 1,642 sq. ft. $122
2017-10-03 Single Family Contemporary 3442 Esplanade Dr Pensacola, FL 32506 $159,900 1,500 sq. ft. 9,444 sq. ft. $107
2017-10-03 Single Family Cottage 381 N St Pensacola, FL 32501 $119,000 968 sq. ft. 3,986 sq. ft. $123
2017-10-03 Single Family Craftsman; Traditional 12806 Island Spirit Dr Pensacola, FL 32506 $344,990 2,872 sq. ft. $120
2017-10-03 Single Family Contemporary 10015 Autumn Ln Pensacola, FL 32514 $275,000 2,600 sq. ft. 24,829 sq. ft. $106
2017-10-03 Single Family Traditional 9019 Woodrun Ln Pensacola, FL 32514 $275,000 2,618 sq. ft. 22,216 sq. ft. $105
2017-10-03 Single Family Ranch 920 Aurelias Pl Pensacola, FL 32514 $162,500 1,390 sq. ft. 4,713 sq. ft. $117
2017-10-03 Single Family Contemporary 4650 Francisco Pensacola, FL 32504 $549,900 3,759 sq. ft. $146
2017-10-02 Single Family Ranch 9037 Cayman Ln Pensacola, FL 32506 $169,900 1,839 sq. ft. 11,326 sq. ft. $92
2017-10-02 Single Family Ranch 8062 Briaroak Dr Pensacola, FL 32514 $190,000 1,758 sq. ft. 11,326 sq. ft. $108
2017-10-02 Single Family Contemporary 8209 Mier Henry Rd Pensacola, FL 32506 $140,000 1,558 sq. ft. 15,682 sq. ft. $90
2017-10-02 Single Family Cottage 1409 Wilson Ave Pensacola, FL 32507 $144,900 1,544 sq. ft. 10,454 sq. ft. $94
2017-10-02 Single Family Contemporary; Ranch 4522 Southpointe Ln Pensacola, FL 32514 $135,000 1,264 sq. ft. 6,839 sq. ft. $107
2017-10-02 Single Family Contemporary 6042 Suntan Cir Pensacola, FL 32526 $169,000 2,001 sq. ft. 9,148 sq. ft. $84
2017-10-02 Single Family Cottage 10234 Crest Ridge Dr Pensacola, FL 32514 $175,900 1,451 sq. ft. $121
2017-10-02 Single Family Country; Ranch 7375 Frank Reeder Rd Pensacola, FL 32526 $150,000 1,521 sq. ft. 43,560 sq. ft. $99
2017-10-02 Single Family English Tudor 9655 Beulah Rd Pensacola, FL 32526 $529,000 5,033 sq. ft. 52,272 sq. ft. $105
2017-10-02 Single Family Ranch 7692 Old Hickory Dr Pensacola, FL 32507 $127,500 1,450 sq. ft. 6,534 sq. ft. $88
2017-10-01 Single Family Traditional 2115 Sunbury Cir Pensacola, FL 32526 $238,000 2,032 sq. ft. 16,117 sq. ft. $117
2017-10-01 Single Family Contemporary 8537 Jade Acres Rd Pensacola, FL 32526 $385,000 3,586 sq. ft. 179,903 sq. ft. $107
2017-10-01 Single Family Country; French Prov; Traditional 4039 Curlew Dr Pensacola, FL 32514 $689,000 3,566 sq. ft. 15,246 sq. ft. $193
2017-10-01 Single Family Contemporary 1438 Claridge Pl Pensacola, FL 32534 $167,000 1,461 sq. ft. 3,920 sq. ft. $114
2017-09-30 Single Family Ranch 2002 Colony Rd Pensacola, FL 32526 $159,000 1,915 sq. ft. 15,246 sq. ft. $83
2017-09-30 Single Family Traditional 908 Aurelias Pl Pensacola, FL 32514 $146,000 1,292 sq. ft. $113
2017-09-30 Single Family Ranch 10482 Heatherwood Dr Pensacola, FL 32506 $137,500 1,550 sq. ft. 12,632 sq. ft. $89
2017-09-30 Single Family Traditional 10528 Tara Dawn Cir Pensacola, FL 32534 $163,900 2,200 sq. ft. 15,272 sq. ft. $74
2017-09-30 Single Family Contemporary 3050 Desert St Pensacola, FL 32514 $185,000 2,340 sq. ft. 8,712 sq. ft. $79
2017-09-30 Single Family Traditional 425 Bunker Hill Dr Pensacola, FL 32506 $199,900 2,118 sq. ft. 18,731 sq. ft. $94
2017-09-29 Single Family Craftsman 9225 Oak Crest Dr Pensacola, FL 32526 $378,050 3,047 sq. ft. $124
2017-09-29 Single Family Contemporary 919 Bobe St Pensacola, FL 32503 $270,000 1,700 sq. ft. 5,301 sq. ft. $159
2017-09-29 Single Family Traditional 9725 Hwy 98 Pensacola, FL 32506 $59,900 1,204 sq. ft. 871 sq. ft. $50
2017-09-29 Single Family Traditional 3401 Jordan Street Pensacola, FL 32505 $29,000 936 sq. ft. 8,712 sq. ft. $31
2017-09-29 Single Family Victorian 24 Brainerd St Pensacola, FL 32501 $474,000 2,878 sq. ft. 8,712 sq. ft. $165
2017-09-29 Single Family Contemporary 1421 Dunhurst Dr Pensacola, FL 32514 $112,500 950 sq. ft. 4,713 sq. ft. $118
2017-09-29 Single Family Ranch 1214 La Paz St Pensacola, FL 32506 $295,000 1,768 sq. ft. 12,632 sq. ft. $167
2017-09-29 Single Family Cottage 2403 Lakeview Ave Pensacola, FL 32505 $29,300 888 sq. ft. 9,583 sq. ft. $33
2017-09-29 Single Family Craftsman 1514 Cervantes Pensacola, FL 32503 $339,000 2,473 sq. ft. 10,890 sq. ft. $137
2017-09-29 Single Family Traditional 211 Mallory St Pensacola, FL 32501 $174,900 1,664 sq. ft. 10,454 sq. ft. $105
2017-09-28 Single Family Ranch 15 St Regis Dr Pensacola, FL 32505 $59,900 1,354 sq. ft. 10,454 sq. ft. $44
2017-09-28 Single Family Ranch 8122 Tippin Ave Pensacola, FL 32514 $87,000 1,562 sq. ft. 11,278 sq. ft. $56
2017-09-28 Single Family Ranch 6423 Hampton Rd Pensacola, FL 32505 $69,900 960 sq. ft. 8,416 sq. ft. $73
2017-09-28 Single Family Ranch 295 Bordeaux St Pensacola, FL 32503 $129,900 1,901 sq. ft. 25,265 sq. ft. $68
2017-09-28 Single Family Traditional 9812 Bridgewood Ln Pensacola, FL 32514 $245,000 2,250 sq. ft. 11,539 sq. ft. $109
2017-09-28 Single Family Cottage 3817 Lee St Pensacola, FL 32505 $19,000 711 sq. ft. 9,148 sq. ft. $27
2017-09-28 Single Family Mediterranean 411 Bayshore Dr Pensacola, FL 32507 $295,000 2,138 sq. ft. 3,920 sq. ft. $138
2017-09-28 Single Family Traditional 8304 Foxtail Loop Pensacola, FL 32526 $459,900 2,678 sq. ft. 16,557 sq. ft. $172
2017-09-28 Single Family Ranch 10040 North Loop Rd Pensacola, FL 32507 $279,900 2,456 sq. ft. 478,289 sq. ft. $114
2017-09-28 Single Family Ranch 879 Aurelias Pl Pensacola, FL 32514 $162,500 1,390 sq. ft. 4,369 sq. ft. $117
2017-09-28 Single Family Ranch 3202 Avery Pensacola, FL 32503 $174,500 1,344 sq. ft. 11,326 sq. ft. $130
2017-09-27 Single Family Cottage 5510 Galvez Rd Pensacola, FL 32507 $150,000 1,232 sq. ft. 11,151 sq. ft. $122
2017-09-27 Single Family Mobile/Mnftd Home 6216 Footprint Dr Pensacola, FL 32526 $79,900 1,431 sq. ft. 8,869 sq. ft. $56
2017-09-27 Single Family Ranch 3 Blithewood Dr Pensacola, FL 32514 $530,000 3,700 sq. ft. 18,687 sq. ft. $143
2017-09-27 Single Family Ranch 553 Hewitt St Pensacola, FL 32503 $74,900 1,224 sq. ft. 20,038 sq. ft. $61
2017-09-27 Single Family Craftsman 1019 Lloyd St Pensacola, FL 32503 $299,900 2,160 sq. ft. 8,250 sq. ft. $139
2017-09-27 Single Family Traditional 8494 Crissy Ln Pensacola, FL 32514 $150,000 1,385 sq. ft. $108
2017-09-27 Single Family Ranch 1303 Gulf Beach Hwy Pensacola, FL 32507 $109,000 1,479 sq. ft. 17,424 sq. ft. $74
2017-09-26 Single Family Ranch 6970 Corneluis Ln Pensacola, FL 32505 $50,000 1,300 sq. ft. 9,583 sq. ft. $38
2017-09-26 Single Family Ranch 64 71st Ave Pensacola, FL 32506 $96,900 1,648 sq. ft. 11,561 sq. ft. $59
2017-09-26 Single Family Traditional 1973 Dunlap St Pensacola, FL 32507 $176,900 1,955 sq. ft. 11,565 sq. ft. $90
2017-09-26 Single Family Traditional 7411 Harvest Moon Ct Pensacola, FL 32526 $287,900 2,401 sq. ft. 10,197 sq. ft. $120
2017-09-26 Single Family Traditional 2341 Majestic Drive Pensacola, FL 32534 $259,928 2,231 sq. ft. 10,890 sq. ft. $117
2017-09-26 Single Family Traditional 2341 Majestic Dr Pensacola, FL 32534 $259,928 2,231 sq. ft. 10,890 sq. ft. $117
2017-09-26 Single Family Traditional 1900 Maxwell St Pensacola, FL 32503 $274,900 1,970 sq. ft. 9,148 sq. ft. $140
2017-09-26 Single Family Creole 8901 Bellawood Cir Pensacola, FL 32514 $204,470 1,710 sq. ft. $120
2017-09-26 Single Family Contemporary 1449 Roebling Trl Pensacola, FL 32506 $215,000 2,605 sq. ft. 9,583 sq. ft. $83
2017-09-25 Single Family Ranch 3530 Dunfries Rd Pensacola, FL 32503 $259,900 1,410 sq. ft. 12,197 sq. ft. $184
2017-09-25 Single Family Traditional 8642 Ramble Woods Dr Pensacola, FL 32514 $169,900 1,584 sq. ft. 12,023 sq. ft. $107
2017-09-25 Single Family Ranch 9643 Quail Hollow Blvd Pensacola, FL 32514 $237,900 2,474 sq. ft. 21,780 sq. ft. $96
2017-09-25 Single Family Cottage 9 Union Ct Pensacola, FL 32506 $19,900 700 sq. ft. 8,276 sq. ft. $28
2017-09-25 Single Family Cottage 705 Lloyd St Pensacola, FL 32501 $34,500 490 sq. ft. 3,485 sq. ft. $70
2017-09-25 Single Family Ranch 318 Garfield Dr Pensacola, FL 32505 $69,900 888 sq. ft. 9,148 sq. ft. $79
2017-09-25 Single Family Traditional 5039 Shoshone Dr Pensacola, FL 32507 $219,900 1,861 sq. ft. 13,068 sq. ft. $118
2017-09-25 Single Family Cottage 153 Wildflower Ln Pensacola, FL 32514 $117,000 1,180 sq. ft. 3,877 sq. ft. $99
2017-09-25 Single Family Traditional 7377 Farmers Rd Pensacola, FL 32526 $202,875 1,665 sq. ft. 9,392 sq. ft. $122
2017-09-25 Single Family Ranch 6101 Trent St Pensacola, FL 32503 $74,999 1,166 sq. ft. 13,504 sq. ft. $64
2017-09-25 Single Family Traditional 7371 Farmers Rd Pensacola, FL 32526 $204,225 1,639 sq. ft. 9,226 sq. ft. $125
2017-09-25 Single Family Traditional 7542 Milynn Way Pensacola, FL 32526 $246,225 1,879 sq. ft. 9,845 sq. ft. $131
2017-09-25 Single Family Traditional 8648 Blake Evan Cir Pensacola, FL 32526 $332,105 2,334 sq. ft. 10,890 sq. ft. $142
2017-09-24 Single Family Ranch 3695 Wimbledon Drive Pensacola, FL 32504 $594,000 5,081 sq. ft. 36,155 sq. ft. $117
2017-09-24 Single Family A-Frame 3695 Wimbledon Dr Pensacola, FL 32504 $594,000 5,081 sq. ft. 35,719 sq. ft. $117
2017-09-24 Single Family Ranch 1003 Trenton Dr Pensacola, FL 32505 $47,000 1,796 sq. ft. 8,599 sq. ft. $26
2017-09-24 Single Family Traditional 7325 Sachem Rd Pensacola, FL 32506 $63,000 900 sq. ft. 8,359 sq. ft. $70
2017-09-23 Single Family Ranch 3720 Don Janeal Rd Pensacola, FL 32526 $174,900 1,928 sq. ft. 43,560 sq. ft. $91
2017-09-23 Single Family Traditional 3902 Elmcrest Dr Pensacola, FL 32504 $115,000 1,432 sq. ft. 7,449 sq. ft. $80
2017-09-23 Single Family Craftsman 8807 Ridgebrook Ct Pensacola, FL 32534 $168,500 1,660 sq. ft. 5,663 sq. ft. $102
2017-09-23 Single Family Traditional 502 73rd Ave Pensacola, FL 32506 $117,000 1,134 sq. ft. 22,216 sq. ft. $103
2017-09-22 Single Family Contemporary 11416 High Springs Rd Pensacola, FL 32534 $249,900 2,487 sq. ft. 66,211 sq. ft. $100
2017-09-22 Single Family Ranch; Traditional 3313 17th Ave Pensacola, FL 32503 $253,330 1,715 sq. ft. 16,988 sq. ft. $148
2017-09-22 Single Family Ranch 840 Lexington Rd Pensacola, FL 32514 $84,900 1,075 sq. ft. 11,761 sq. ft. $79
2017-09-22 Single Family Ranch 7738 Boyd Ave Pensacola, FL 32514 $125,000 2,507 sq. ft. 20,038 sq. ft. $50
2017-09-22 Single Family Cottage 3710 Brainerd St Pensacola, FL 32505 $99,900 1,107 sq. ft. 21,780 sq. ft. $90
2017-09-22 Single Family Traditional 1016 Stormy Ter Pensacola, FL 32503 $365,000 2,424 sq. ft. 4,896 sq. ft. $151
2017-09-22 Single Family Cottage; Traditional 6009 Dahoon Dr Pensacola, FL 32526 $444,900 2,551 sq. ft. 13,504 sq. ft. $174
2017-09-22 Single Family Ranch 6368 Mers Ln Pensacola, FL 32526 $129,900 1,330 sq. ft. 6,016 sq. ft. $98
2017-09-22 Single Family Ranch 2812 Donley St Pensacola, FL 32526 $89,000 1,350 sq. ft. 7,405 sq. ft. $66
2017-09-22 Single Family A-Frame; Cottage 904 8th Ave Pensacola, FL 32501 $279,900 1,211 sq. ft. $231
2017-09-22 Single Family Cottage 815 8th Ave Pensacola, FL 32501 $199,900 1,100 sq. ft. $182
2017-09-21 Single Family Craftsman 8761 Lupine Ln Pensacola, FL 32526 $439,900 2,951 sq. ft. 17,960 sq. ft. $149
2017-09-21 Single Family Ranch 1023 Potomac Dr Pensacola, FL 32505 $82,000 1,215 sq. ft. 8,276 sq. ft. $67
2017-09-21 Single Family Ranch 3986 Potosi Rd Pensacola, FL 32504 $179,900 1,883 sq. ft. 10,890 sq. ft. $96
2017-09-21 Single Family Ranch 8261 Whitmire Rd Pensacola, FL 32514 $127,750 1,686 sq. ft. 9,583 sq. ft. $76
2017-09-21 Single Family Traditional 9335 Scenic Hwy Pensacola, FL 32514 $239,900 1,372 sq. ft. 35,719 sq. ft. $175
2017-09-21 Single Family Cottage 16329 Perdido Key Dr Pensacola, FL 32507 $1,485,000 2,065 sq. ft. $719
2017-09-21 Single Family Ranch 2445 Greenbrier Blvd Pensacola, FL 32514 $189,745 2,444 sq. ft. 14,810 sq. ft. $78
2017-09-21 Single Family Traditional 214 Jordan St Pensacola, FL 32503 $60,000 1,200 sq. ft. 15,682 sq. ft. $50
2017-09-21 Single Family Traditional 61 Pinestead Rd Pensacola, FL 32503 $48,000 1,000 sq. ft. 10,454 sq. ft. $48
2017-09-20 Single Family Traditional 884 Aurelias Pl Pensacola, FL 32514 $149,000 1,404 sq. ft. 3,097 sq. ft. $106
2017-09-20 Single Family Ranch 385 Quigley Rd Pensacola, FL 32506 $90,000 1,180 sq. ft. 7,841 sq. ft. $76
2017-09-20 Single Family Victorian 1107 Cervantes Pensacola, FL 32501 $139,000 1,599 sq. ft. 5,101 sq. ft. $87
2017-09-20 Single Family Ranch 20 Teakwood Cir Pensacola, FL 32506 $89,500 1,619 sq. ft. 11,761 sq. ft. $55
2017-09-20 Single Family Craftsman 506 1st St Pensacola, FL 32507 $60,000 800 sq. ft. 6,098 sq. ft. $75
2017-09-19 Single Family Ranch 2906 Moreno St Pensacola, FL 32505 $89,000 1,314 sq. ft. 32,670 sq. ft. $68
2017-09-19 Single Family Cottage 2920 Lloyd St Pensacola, FL 32505 $47,000 972 sq. ft. 7,405 sq. ft. $48
2017-09-19 Single Family Cottage 249 Intendencia Pensacola, FL 32502 $319,000 962 sq. ft. 4,792 sq. ft. $332
2017-09-19 Single Family A-Frame; Cottage 912 8th Ave Pensacola, FL 32501 $279,900 1,211 sq. ft. $231
2017-09-19 Single Family A-Frame; Cottage 908 8th Ave Pensacola, FL 32501 $279,900 1,211 sq. ft. $231
2017-09-19 Single Family A-Frame; Cottage 900 8th Ave Pensacola, FL 32501 $279,900 1,211 sq. ft. $231
2017-09-19 Single Family Colonial 3106 Lee St Pensacola, FL 32505 $57,950 1,288 sq. ft. 7,841 sq. ft. $45
2017-09-19 Single Family Townhome 912 8th Street Pensacola, FL 32501 $279,900 1,211 sq. ft. $231
2017-09-19 Single Family Townhome 908 8th Street Pensacola, FL 32501 $279,900 1,211 sq. ft. $231
2017-09-19 Single Family Townhome 900 8th Street Pensacola, FL 32501 $279,900 1,211 sq. ft. $231
2017-09-19 Single Family Cottage 6565 Blue Angel Pkwy Pensacola, FL 32526 $129,000 1,108 sq. ft. 15,682 sq. ft. $116
2017-09-19 Single Family Townhome 904 8th Street Pensacola, FL 32501 $279,900 1,211 sq. ft. $231
2017-09-19 Single Family Ranch 10710 Tara Dawn Cir Pensacola, FL 32534 $179,400 1,647 sq. ft. 12,589 sq. ft. $109
2017-09-19 Single Family Ranch 2445 Greenbrier Pensacola, FL 32514 $189,745 2,444 sq. ft. 14,810 sq. ft. $78
2017-09-19 Single Family Contemporary 6648 Lake Charlene Dr Pensacola, FL 32506 $164,900 2,240 sq. ft. 10,019 sq. ft. $74
2017-09-19 Single Family Contemporary; Traditional 5269 Pale Moon Dr Pensacola, FL 32507 $395,000 3,048 sq. ft. 20,909 sq. ft. $130
2017-09-19 Single Family Traditional 1007 Trenton Dr Pensacola, FL 32505 $79,900 1,150 sq. ft. 5,227 sq. ft. $69
2017-09-19 Single Family Traditional 2113 Davis Hwy Pensacola, FL 32503 $99,000 1,052 sq. ft. 3,049 sq. ft. $94
2017-09-19 Single Family A-Frame 4205 Ciudad Dr Pensacola, FL 32504 $91,500 1,236 sq. ft. 3,049 sq. ft. $74
2017-09-18 Single Family A-Frame; Colonial 1145 Ellison Dr Pensacola, FL 32503 $379,000 2,640 sq. ft. 24,890 sq. ft. $144
2017-09-18 Single Family Traditional 1503 Rivers St Pensacola, FL 32514 $135,000 1,824 sq. ft. 17,860 sq. ft. $74
2017-09-18 Single Family Contemporary 1162 Old Nursery Way Pensacola, FL 32514 $189,000 1,962 sq. ft. $96
2017-09-18 Single Family Contemporary 568 Evening Falls Dr Pensacola, FL 32533 $156,500 1,428 sq. ft. 3,920 sq. ft. $110
2017-09-18 Single Family Traditional 3106 Station Ct Pensacola, FL 32504 $164,900 1,200 sq. ft. 4,792 sq. ft. $137
2017-09-18 Single Family Colonial 1145 Ellison Drive Pensacola, FL 32503 $379,000 2,640 sq. ft. 24,829 sq. ft. $144
2017-09-18 Single Family Cottage 518 Gonzalez St Pensacola, FL 32503 $169,000 1,159 sq. ft. 3,049 sq. ft. $146
2017-09-17 Single Family Ranch 8140 Tabaid Ln Pensacola, FL 32506 $139,000 2,054 sq. ft. 11,326 sq. ft. $68
2017-09-17 Single Family Contemporary; Ranch; Traditional 5190 Pale Moon Dr Pensacola, FL 32507 $625,000 2,253 sq. ft. 22,216 sq. ft. $277
2017-09-16 Single Family Contemporary 4107 Brittany Pl Pensacola, FL 32504 $375,000 3,028 sq. ft. 11,326 sq. ft. $124
2017-09-16 Single Family Colonial 4341 Heart Pine Cir Pensacola, FL 32504 $239,900 2,400 sq. ft. 19,166 sq. ft. $100
2017-09-16 Single Family Ranch 733 62nd Ave Pensacola, FL 32506 $110,000 1,161 sq. ft. 10,067 sq. ft. $95
2017-09-15 Single Family Contemporary 3018 Turners Meadow Rd Pensacola, FL 32514 $218,900 2,272 sq. ft. 10,890 sq. ft. $96
2017-09-15 Single Family Ranch 6363 Chicago Ave Pensacola, FL 32526 $88,000 1,352 sq. ft. 10,890 sq. ft. $65
2017-09-15 Single Family Ranch 7810 Amberidge Rd Pensacola, FL 32534 $64,999 1,241 sq. ft. 7,405 sq. ft. $52
2017-09-15 Single Family Cottage 926 Cross St Pensacola, FL 32503 $169,900 1,638 sq. ft. 8,712 sq. ft. $104
2017-09-15 Single Family Traditional 808 Baars St Pensacola, FL 32503 $119,900 1,936 sq. ft. 20,473 sq. ft. $62
2017-09-14 Single Family Ranch 271 Chestnut St Pensacola, FL 32506 $50,000 1,004 sq. ft. 6,534 sq. ft. $50
2017-09-14 Single Family Ranch 1260 Barmel St Pensacola, FL 32534 $136,000 1,495 sq. ft. 30,056 sq. ft. $91
2017-09-14 Single Family Craftsman 10761 Trailblazer Way Pensacola, FL 32506 $223,900 2,194 sq. ft. 6,011 sq. ft. $102
2017-09-14 Single Family Craftsman 10765 Trailblazer Way Pensacola, FL 32506 $237,900 2,309 sq. ft. 7,322 sq. ft. $103
2017-09-14 Single Family Craftsman 10757 Trailblazer Way Pensacola, FL 32506 $237,900 2,309 sq. ft. 7,057 sq. ft. $103
2017-09-14 Single Family Ranch 7764 Graves Rd Pensacola, FL 32514 $94,900 1,261 sq. ft. 8,712 sq. ft. $75
2017-09-14 Single Family Traditional 1508 Bayshore Ln Pensacola, FL 32507 $498,950 2,618 sq. ft. 12,393 sq. ft. $191
2017-09-14 Single Family Traditional 918 Artesian Ave Pensacola, FL 32505 $118,900 1,690 sq. ft. 7,841 sq. ft. $70
2017-09-14 Single Family Ranch 2765 Belle Meadow Ct Pensacola, FL 32514 $214,000 2,151 sq. ft. 17,860 sq. ft. $99
2017-09-14 Single Family Ranch 120 Emmons Ln Pensacola, FL 32506 $93,000 1,652 sq. ft. 102,366 sq. ft. $56
2017-09-14 Single Family Ranch 1478 Dunhurst Dr Pensacola, FL 32534 $128,000 1,200 sq. ft. 4,792 sq. ft. $107
2017-09-13 Single Family Ranch 2000 Lansing Dr Pensacola, FL 32504 $99,000 1,425 sq. ft. 10,454 sq. ft. $69
2017-09-13 Single Family Contemporary 2329 Arriviste Way Pensacola, FL 32504 $329,900 2,473 sq. ft. 12,271 sq. ft. $133
2017-09-13 Single Family Craftsman 10674 Trailblazer Way Pensacola, FL 32506 $201,400 1,875 sq. ft. 5,763 sq. ft. $107
2017-09-13 Single Family Craftsman 10732 Trailblazer Way Pensacola, FL 32506 $193,400 1,783 sq. ft. 6,843 sq. ft. $108
2017-09-13 Single Family Ranch 7900 Le Jeune Dr Pensacola, FL 32514 $144,900 1,648 sq. ft. 9,771 sq. ft. $88
2017-09-13 Single Family Craftsman 10776 Trailblazer Way Pensacola, FL 32506 $201,400 1,875 sq. ft. 6,538 sq. ft. $107
2017-09-13 Single Family Cottage 6913 Melanie Dr Pensacola, FL 32505 $49,900 1,352 sq. ft. 22,651 sq. ft. $37
2017-09-13 Single Family Ranch 6511 Suwanee Rd Pensacola, FL 32526 $165,000 2,040 sq. ft. 43,996 sq. ft. $81
2017-09-13 Single Family Country 940 Paradise Beach Circle Pensacola, FL 32506 $1,349,000 6,023 sq. ft. 59,677 sq. ft. $224
2017-09-13 Single Family Traditional 8808 Burning Tree Rd Pensacola, FL 32514 $269,900 2,679 sq. ft. 12,950 sq. ft. $101
2017-09-12 Single Family Contemporary 2631 Bayou Blvd Pensacola, FL 32503 $1,299,000 6,740 sq. ft. 47,916 sq. ft. $193
2017-09-12 Single Family Craftsman; Traditional 1090 Perdido Manor Rd Pensacola, FL 32506 $329,900 2,018 sq. ft. 26,816 sq. ft. $163
2017-09-12 Single Family Craftsman 5511 Spoonflower Dr Pensacola, FL 32526 $374,999 2,262 sq. ft. 10,642 sq. ft. $166
2017-09-12 Single Family Creole 8902 Bellawood Cir Pensacola, FL 32514 $217,470 1,906 sq. ft. $114
2017-09-11 Single Family Traditional 2418 Hencye Dr Pensacola, FL 32514 $63,000 1,988 sq. ft. 18,731 sq. ft. $32
2017-09-11 Single Family Craftsman 1625 Gadsden St Pensacola, FL 32501 $297,500 1,901 sq. ft. 10,454 sq. ft. $156
2017-09-11 Single Family Traditional 2303 Michigan Ave Pensacola, FL 32526 $58,000 1,014 sq. ft. 227,740 sq. ft. $57
2017-09-11 Single Family Contemporary 2917 Miller St Pensacola, FL 32503 $75,000 1,300 sq. ft. $58
2017-09-11 Single Family Contemporary 329 Mt Airy St Pensacola, FL 32533 $270,000 2,417 sq. ft. 17,424 sq. ft. $112
2017-09-11 Single Family Contemporary 109 Baylen St Pensacola, FL 32502 $899,000 2,596 sq. ft. 1,651 sq. ft. $346
2017-09-10 Single Family Ranch 4925 Sierra Dr Pensacola, FL 32526 $35,000 1,060 sq. ft. 40,511 sq. ft. $33
2017-09-10 Single Family Contemporary 1930 Adirondack Ave Pensacola, FL 32514 $270,000 2,730 sq. ft. 17,424 sq. ft. $99
2017-09-09 Single Family Colonial 3976 Menendez Dr Pensacola, FL 32503 $998,100 4,966 sq. ft. 23,980 sq. ft. $201
2017-09-09 Single Family Contemporary 368 Palm Lake Dr Pensacola, FL 32507 $400,000 2,900 sq. ft. 23,522 sq. ft. $138
2017-09-09 Single Family Traditional 3108 Las Brisas Dr Pensacola, FL 32526 $129,000 1,924 sq. ft. 10,533 sq. ft. $67
2017-09-09 Single Family Traditional 6344 Mers Ln Pensacola, FL 32526 $169,000 1,848 sq. ft. 5,663 sq. ft. $91
2017-09-09 Single Family Cottage; Craftsman 1900 8th Ave Pensacola, FL 32503 $199,900 993 sq. ft. 3,698 sq. ft. $201
2017-09-09 Single Family Traditional 6839 Stonehenge Cir Pensacola, FL 32506 $139,900 2,043 sq. ft. 10,890 sq. ft. $68
2017-09-08 Single Family Ranch 7863 Northpointe Blvd Pensacola, FL 32514 $184,500 1,900 sq. ft. 10,890 sq. ft. $97
2017-09-08 Single Family Traditional 925 Madison Dr Pensacola, FL 32505 $49,800 1,335 sq. ft. $37
2017-09-08 Single Family Traditional 1921 Fisher St Pensacola, FL 32503 $469,500 3,185 sq. ft. 11,761 sq. ft. $147
2017-09-08 Single Family Contemporary 5912 Bay Point Dr Pensacola, FL 32507 $174,900 1,326 sq. ft. 4,356 sq. ft. $132
2017-09-08 Single Family Ranch 2296 Zane Grey Ln Pensacola, FL 32534 $199,900 1,587 sq. ft. 47,916 sq. ft. $126
2017-09-08 Single Family Traditional 1400 Bayou Blvd Pensacola, FL 32503 $246,950 3,005 sq. ft. 20,473 sq. ft. $82
2017-09-07 Single Family Traditional 372 Palm Lake Dr Pensacola, FL 32507 $339,000 2,327 sq. ft. 18,295 sq. ft. $146
2017-09-07 Single Family Contemporary 3321 Sugartree St Pensacola, FL 32503 $172,000 1,366 sq. ft. 4,356 sq. ft. $126
2017-09-07 Single Family Traditional 3052 Andover Rd Pensacola, FL 32504 $225,000 2,405 sq. ft. 14,980 sq. ft. $94
2017-09-07 Single Family Craftsman 2015 Cross St Pensacola, FL 32503 $299,000 1,690 sq. ft. 15,899 sq. ft. $177
2017-09-07 Single Family Traditional 3220 Fairmont St Pensacola, FL 32505 $93,000 1,250 sq. ft. 10,890 sq. ft. $74
2017-09-07 Single Family Contemporary 2544 Tarkiln Oak Cir Pensacola, FL 32506 $169,900 1,946 sq. ft. $87
2017-09-06 Single Family Contemporary 8580 Kingfisher Ln Pensacola, FL 32534 $129,900 1,512 sq. ft. 9,583 sq. ft. $86
2017-09-06 Single Family Craftsman 1614 Brainerd St Pensacola, FL 32503 $269,900 2,082 sq. ft. 10,890 sq. ft. $130
2017-09-06 Single Family Cottage 1300 Sunrunner Rd Pensacola, FL 32504 $114,750 1,475 sq. ft. 6,970 sq. ft. $78
2017-09-06 Single Family Contemporary 3110 Leesburg Sq Pensacola, FL 32504 $239,900 2,258 sq. ft. 5,227 sq. ft. $106
2017-09-06 Single Family Contemporary 2309 Malysa Pl Pensacola, FL 32504 $339,000 2,258 sq. ft. 13,068 sq. ft. $150
2017-09-06 Single Family Ranch 7314 Gunter Rd Pensacola, FL 32526 $146,000 1,635 sq. ft. 15,015 sq. ft. $89
2017-09-06 Single Family Traditional 3706 Sunnyside St Pensacola, FL 32507 $92,900 1,500 sq. ft. 13,068 sq. ft. $62
2017-09-06 Single Family Traditional 8474 Kipling St Pensacola, FL 32514 $89,500 1,088 sq. ft. 2,178 sq. ft. $82
2017-09-06 Single Family Contemporary 2764 King St Pensacola, FL 32526 $135,000 1,325 sq. ft. 13,068 sq. ft. $102
2017-09-05 Single Family Traditional 1205 Grandview St Pensacola, FL 32505 $48,500 1,092 sq. ft. 7,754 sq. ft. $44
2017-09-05 Single Family Traditional 8516 Punta Lora Pensacola, FL 32514 $389,900 3,368 sq. ft. 13,939 sq. ft. $116
2017-09-05 Single Family Contemporary 311 Edgewater Dr Pensacola, FL 32507 $649,000 3,500 sq. ft. 19,114 sq. ft. $185
2017-09-05 Single Family Contemporary 5004 Choctaw Ave Pensacola, FL 32507 $199,900 1,815 sq. ft. 9,762 sq. ft. $110
2017-09-05 Single Family Contemporary 1161 Freeboard Blvd Pensacola, FL 32507 $200,000 2,124 sq. ft. $94
2017-09-05 Single Family Traditional 7200 Tannehill Dr Pensacola, FL 32526 $200,000 2,250 sq. ft. 8,712 sq. ft. $89
2017-09-05 Single Family Traditional 5631 Galvez Rd Pensacola, FL 32507 $159,900 1,675 sq. ft. 12,432 sq. ft. $95
2017-09-03 Single Family Contemporary 423 El Matador Trl Pensacola, FL 32506 $119,000 1,566 sq. ft. 18,295 sq. ft. $76
2017-09-03 Single Family Traditional 1961 Nature Ln Pensacola, FL 32526 $450,000 3,823 sq. ft. 35,284 sq. ft. $118
2017-09-03 Single Family Traditional 20 Carver Dr Pensacola, FL 32507 $32,000 688 sq. ft. 6,970 sq. ft. $47
2017-09-01 Single Family Country; Ranch 7380 Shelby Ln Pensacola, FL 32526 $165,000 1,710 sq. ft. 39,204 sq. ft. $96
2017-09-01 Single Family Ranch 12490 Seratine Dr Pensacola, FL 32506 $169,900 1,716 sq. ft. 47,916 sq. ft. $99
2017-09-01 Single Family Ranch 2820 Mandeville Ln Pensacola, FL 32526 $189,900 2,299 sq. ft. 47,916 sq. ft. $83
2017-09-01 Single Family Ranch 2097 Coral Creek Dr Pensacola, FL 32506 $229,000 2,558 sq. ft. 12,632 sq. ft. $90
2017-09-01 Single Family Craftsman 230 Old Corry Field Rd Pensacola, FL 32507 $74,900 1,064 sq. ft. 21,344 sq. ft. $70
2017-09-01 Single Family Cottage 713 Strong St Pensacola, FL 32501 $194,900 1,100 sq. ft. $177
2017-09-01 Single Family Cottage; Craftsman 700 Hernandez St Pensacola, FL 32503 $279,000 1,370 sq. ft. $204
2017-09-01 Single Family Cottage 6026 Chicago Ave Pensacola, FL 32526 $148,000 2,046 sq. ft. $72
2017-09-01 Single Family Victorian 110 Strong St Pensacola, FL 32501 $589,900 3,826 sq. ft. 13,800 sq. ft. $154
2017-09-01 Single Family Traditional 6390 Cattle Dr Pensacola, FL 32526 $189,500 1,556 sq. ft. 11,761 sq. ft. $122
2017-08-31 Single Family Country 7805 Interstate Ct Pensacola, FL 32526 $74,900 948 sq. ft. 217,364 sq. ft. $79
2017-08-31 Single Family Ranch; Traditional 106 Tonawanda Dr Pensacola, FL 32506 $54,000 1,410 sq. ft. 13,939 sq. ft. $38
2017-08-31 Single Family Traditional 415 Mallory St Pensacola, FL 32503 $104,900 1,478 sq. ft. 6,098 sq. ft. $71
2017-08-31 Single Family Traditional 5113 Wheeler Way Pensacola, FL 32526 $264,560 2,402 sq. ft. 9,601 sq. ft. $110
2017-08-31 Single Family Traditional 7412 Harvest Moon Ct Pensacola, FL 32526 $274,350 2,511 sq. ft. 9,601 sq. ft. $109
2017-08-31 Single Family Traditional 7746 Winter Greene Dr Pensacola, FL 32526 $274,425 2,511 sq. ft. 9,858 sq. ft. $109
2017-08-31 Single Family Traditional 7747 Winter Greene Dr Pensacola, FL 32526 $253,850 2,241 sq. ft. 9,858 sq. ft. $113
2017-08-31 Single Family Traditional 7739 Winter Greene Dr Pensacola, FL 32526 $268,075 2,402 sq. ft. 10,285 sq. ft. $112
2017-08-31 Single Family Colonial 1404 Greystone Dr Pensacola, FL 32514 $129,000 1,422 sq. ft. 5,732 sq. ft. $91
2017-08-30 Single Family Craftsman 2311 12th Ave Pensacola, FL 32503 $329,000 1,750 sq. ft. 5,445 sq. ft. $188
2017-08-30 Single Family Craftsman 8010 Woodbrook Rd Pensacola, FL 32526 $344,900 3,076 sq. ft. 13,068 sq. ft. $112
2017-08-30 Single Family Ranch 1064 Meadson Cir Pensacola, FL 32506 $375,000 3,048 sq. ft. 43,207 sq. ft. $123
2017-08-30 Single Family Cottage 2201 Bush St Pensacola, FL 32534 $89,900 975 sq. ft. 16,553 sq. ft. $92
2017-08-29 Single Family Traditional 7371 Sandy Creek Dr Pensacola, FL 32506 $129,000 1,416 sq. ft. 10,890 sq. ft. $91
2017-08-29 Single Family Contemporary 8041 Thoroughbred Rd Pensacola, FL 32526 $335,000 2,470 sq. ft. 20,177 sq. ft. $136
2017-08-29 Single Family Cottage; Traditional 22 Flynn Dr Pensacola, FL 32507 $75,000 1,891 sq. ft. 6,534 sq. ft. $40
2017-08-29 Single Family Contemporary 5546 Grande Lagoon Ct Pensacola, FL 32507 $294,000 2,020 sq. ft. 12,110 sq. ft. $146
2017-08-29 Single Family Cottage 7582 Northpointe Blvd Pensacola, FL 32514 $164,300 1,600 sq. ft. 6,534 sq. ft. $103
2017-08-28 Single Family Traditional 8350 Briese Ln Pensacola, FL 32514 $110,000 1,491 sq. ft. 47,045 sq. ft. $74
2017-08-28 Single Family Traditional 3460 Lemmington Rd Pensacola, FL 32504 $189,000 1,600 sq. ft. 9,148 sq. ft. $118
2017-08-28 Single Family Contemporary 12090 Longwood Dr Pensacola, FL 32507 $222,000 2,317 sq. ft. 15,682 sq. ft. $96
2017-08-28 Single Family Contemporary 1182 Hawthorn Dr Pensacola, FL 32507 $124,900 1,275 sq. ft. 6,098 sq. ft. $98
2017-08-28 Single Family Traditional 5063 Port St Joe St Pensacola, FL 32526 $197,000 1,996 sq. ft. 9,030 sq. ft. $99
2017-08-28 Single Family Contemporary 5795 Avenida Real Pensacola, FL 32504 $379,900 3,388 sq. ft. 20,822 sq. ft. $112
2017-08-28 Single Family Contemporary 950 Buena Ave Pensacola, FL 32507 $124,900 1,263 sq. ft. 6,098 sq. ft. $99
2017-08-28 Single Family Traditional 1158 F St Pensacola, FL 32501 $85,000 1,078 sq. ft. 6,098 sq. ft. $79
2017-08-28 Single Family Contemporary 365 Arabian Dr Pensacola, FL 32506 $134,800 2,225 sq. ft. 13,939 sq. ft. $61
2017-08-28 Single Family Contemporary 3014 Marcus Pointe Blvd Pensacola, FL 32505 $219,900 1,793 sq. ft. 11,761 sq. ft. $123
2017-08-28 Single Family Traditional 2690 Pine Forest Rd Pensacola, FL 32533 $50,000 1,107 sq. ft. 27,443 sq. ft. $45
2017-08-28 Single Family Ranch 9549 Bowman Ave Pensacola, FL 32534 $142,900 1,548 sq. ft. 20,909 sq. ft. $92
2017-08-28 Single Family Traditional 1707 Kirk St Pensacola, FL 32505 $50,000 912 sq. ft. 9,148 sq. ft. $55
2017-08-28 Single Family Ranch 398 Royce St Pensacola, FL 32503 $74,000 1,682 sq. ft. 22,651 sq. ft. $44
2017-08-27 Single Family Traditional 750 Berkley Dr Pensacola, FL 32503 $88,800 1,416 sq. ft. 9,287 sq. ft. $63
2017-08-27 Single Family Contemporary 2079 Juno Cir Pensacola, FL 32526 $339,000 2,510 sq. ft. 16,753 sq. ft. $135
2017-08-27 Single Family Traditional 3355 Seabrook St Pensacola, FL 32505 $69,200 2,402 sq. ft. 8,411 sq. ft. $29
2017-08-27 Single Family Contemporary 5111 Terra Lake Cir Pensacola, FL 32507 $179,000 1,701 sq. ft. 10,890 sq. ft. $105
2017-08-26 Single Family A-Frame 6103 Jackson St Pensacola, FL 32506 $35,000 1,731 sq. ft. 33,541 sq. ft. $20
2017-08-26 Single Family Ranch 1817 Brewer Dr Pensacola, FL 32526 $184,900 2,112 sq. ft. 45,302 sq. ft. $88
2017-08-26 Single Family Contemporary 2517 Tarkiln Oak Dr Pensacola, FL 32506 $189,900 2,599 sq. ft. 11,056 sq. ft. $73
2017-08-26 Single Family Cottage 1221 Government St Pensacola, FL 32502 $214,900 1,295 sq. ft. $166
2017-08-26 Single Family Ranch 7032 Santa Barbara St Pensacola, FL 32526 $79,900 1,290 sq. ft. 6,534 sq. ft. $62
2017-08-25 Single Family Ranch 8320 Calvert St Pensacola, FL 32514 $49,900 1,963 sq. ft. 9,583 sq. ft. $25
2017-08-25 Single Family Ranch 3831 Bonway Dr Pensacola, FL 32504 $127,900 1,600 sq. ft. 12,197 sq. ft. $80
2017-08-25 Single Family Ranch 1516 Hernandez St Pensacola, FL 32503 $349,000 1,620 sq. ft. 10,890 sq. ft. $215
2017-08-25 Single Family Craftsman; Traditional 6109 Basswood Dr Pensacola, FL 32526 $303,990 3,024 sq. ft. $101
2017-08-25 Single Family Mobile/Mnftd Home 1 Alethia St Pensacola, FL 32505 $89,000 1,782 sq. ft. 51,401 sq. ft. $50
2017-08-25 Single Family Traditional 3145 Cedarwood Village Ln Pensacola, FL 32514 $79,500 1,178 sq. ft. 5,663 sq. ft. $67
2017-08-25 Single Family Contemporary 612 1st St Pensacola, FL 32507 $385,000 2,805 sq. ft. 2,740 sq. ft. $137
2017-08-25 Single Family Ranch 6510 Allyn Way Pensacola, FL 32504 $129,000 1,352 sq. ft. 8,712 sq. ft. $95
2017-08-24 Single Family Traditional 10596 Wilderness Ln Pensacola, FL 32534 $139,900 1,428 sq. ft. 3,920 sq. ft. $98
2017-08-24 Single Family Traditional 10025 Scenic Hwy Pensacola, FL 32514 $239,500 2,089 sq. ft. $115
2017-08-24 Single Family Single Family Home 324 Vera Lane Pensacola, FL 32514 $89,991 1,739 sq. ft. 8,712 sq. ft. $52
2017-08-24 Single Family Single Family Home 4509 Chantilly Way Pensacola, FL 32505 $63,261 2,000 sq. ft. 8,712 sq. ft. $32
2017-08-23 Single Family Traditional 2300 Arriviste Way Pensacola, FL 32504 $550,000 4,400 sq. ft. 17,860 sq. ft. $125
2017-08-23 Single Family Ranch 6634 Tampa Dr Pensacola, FL 32526 $159,900 1,675 sq. ft. 5,990 sq. ft. $95
2017-08-23 Single Family Victorian 2340 Inverness Dr Pensacola, FL 32503 $429,900 2,995 sq. ft. 15,246 sq. ft. $144
2017-08-23 Single Family Traditional 2315 Summit Blvd Pensacola, FL 32503 $279,500 3,159 sq. ft. 16,988 sq. ft. $88
2017-08-23 Single Family Contemporary 5275 Powrie Dr Pensacola, FL 32504 $150,900 1,520 sq. ft. 0 sq. ft. $99
2017-08-23 Single Family Contemporary 700 Landing Ln Pensacola, FL 32507 $137,900 1,570 sq. ft. 4,792 sq. ft. $88
2017-08-22 Single Family Contemporary 1045 Bonita Dr Pensacola, FL 32507 $369,900 2,450 sq. ft. $151
2017-08-22 Single Family Contemporary 9339 Scenic Hwy Pensacola, FL 32514 $699,000 3,950 sq. ft. 69,260 sq. ft. $177
2017-08-22 Single Family Contemporary 5320 Potosi Ct Pensacola, FL 32504 $399,900 2,878 sq. ft. 11,326 sq. ft. $139
2017-08-22 Single Family Traditional 4507 Tradewinds Pl Pensacola, FL 32514 $115,000 1,380 sq. ft. 13,939 sq. ft. $83
2017-08-22 Single Family Traditional 321 Gulfview Ln Pensacola, FL 32507 $699,000 3,306 sq. ft. 7,841 sq. ft. $211
2017-08-22 Single Family Traditional 1705 Gadsden St Pensacola, FL 32501 $334,500 1,836 sq. ft. $182
2017-08-21 Single Family Contemporary; Cottage; Traditional 1258 Parasol Pl Pensacola, FL 32507 $849,000 3,202 sq. ft. 6,534 sq. ft. $265
2017-08-21 Single Family Contemporary 4060 Indigo Dr Pensacola, FL 32507 $299,900 1,515 sq. ft. 4,356 sq. ft. $198
2017-08-21 Single Family Contemporary 6629 Flagler Dr Pensacola, FL 32503 $36,500 1,200 sq. ft. 23,958 sq. ft. $30
2017-08-21 Single Family Traditional 3531 Dunwoody Dr Pensacola, FL 32503 $257,500 2,802 sq. ft. 12,049 sq. ft. $92
2017-08-21 Single Family Cottage 8077 Stonebrook Dr Pensacola, FL 32514 $90,000 864 sq. ft. 6,085 sq. ft. $104
2017-08-21 Single Family Contemporary 4510 Baybrook Dr Pensacola, FL 32514 $450,000 3,709 sq. ft. 22,037 sq. ft. $121
2017-08-20 Single Family Contemporary 14644 River Rd Pensacola, FL 32507 $950,000 4,461 sq. ft. 25,944 sq. ft. $213
2017-08-20 Single Family Traditional 922 58th Ave Pensacola, FL 32506 $90,000 1,070 sq. ft. 9,483 sq. ft. $84
2017-08-20 Single Family Cottage 923 58th Ave Pensacola, FL 32506 $72,900 672 sq. ft. 9,148 sq. ft. $108
2017-08-19 Single Family Traditional 1415 Lansing Dr Pensacola, FL 32504 $189,900 2,724 sq. ft. 50,094 sq. ft. $70
2017-08-19 Single Family Traditional 6090 Toulouse Dr Pensacola, FL 32505 $270,000 3,285 sq. ft. 26,136 sq. ft. $82
2017-08-18 Single Family Ranch 7729 Brook Meadow Pl Pensacola, FL 32514 $74,900 1,058 sq. ft. 8,276 sq. ft. $71
2017-08-18 Single Family Ranch 4819 State St Pensacola, FL 32506 $59,500 1,482 sq. ft. 10,454 sq. ft. $40
2017-08-18 Single Family Contemporary 4556 Whisper Way Pensacola, FL 32504 $325,000 2,637 sq. ft. 15,682 sq. ft. $123
2017-08-18 Single Family Traditional 221 Ada Wilson Ave Pensacola, FL 32507 $60,000 1,303 sq. ft. 11,326 sq. ft. $46
2017-08-18 Single Family Traditional 7406 St James Pl Pensacola, FL 32506 $139,900 1,764 sq. ft. 8,712 sq. ft. $79
2017-08-18 Single Family Traditional 3733 Scenic Ridge Dr Pensacola, FL 32514 $325,000 3,055 sq. ft. 16,553 sq. ft. $106
2017-08-17 Single Family Traditional 1005 A St Pensacola, FL 32501 $228,000 2,025 sq. ft. $113
2017-08-17 Single Family Traditional 1720 Langley Ave Pensacola, FL 32504 $109,900 1,300 sq. ft. 13,939 sq. ft. $85
2017-08-17 Single Family Traditional 2358 Waltham St Pensacola, FL 32505 $167,900 1,820 sq. ft. 7,497 sq. ft. $92
2017-08-17 Single Family Traditional 6005 Tonawanda Dr Pensacola, FL 32506 $175,000 1,576 sq. ft. 79,715 sq. ft. $111
2017-08-16 Single Family Ranch 1090 Meadson Cir Pensacola, FL 32506 $160,000 1,837 sq. ft. 37,026 sq. ft. $87
2017-08-16 Single Family Contemporary 2952 Raines St Pensacola, FL 32514 $154,900 1,738 sq. ft. 10,890 sq. ft. $89
2017-08-16 Single Family Traditional 5129 Wheeler Way Pensacola, FL 32526 $307,850 2,077 sq. ft. 11,500 sq. ft. $148
2017-08-16 Single Family Traditional 8716 Blake Evan Cir Pensacola, FL 32526 $321,925 2,589 sq. ft. 10,890 sq. ft. $124
2017-08-16 Single Family Cottage 7293 Captain Kidd Reef Pensacola, FL 32507 $1,000,000 3,000 sq. ft. 17,123 sq. ft. $333